sensor_id;sensor_type;location;lat;lon;timestamp;temperature;humidity
75357;HTU21D;63946;51.986;5.930;2022-10-16T07:17:04;13.79;76.89
75357;HTU21D;63946;51.986;5.930;2022-10-16T07:20:07;13.83;76.98
75357;HTU21D;63946;51.986;5.930;2022-10-16T07:44:58;14.29;76.15
75357;HTU21D;63946;51.986;5.930;2022-10-16T07:55:30;14.82;75.62
75357;HTU21D;63946;51.986;5.930;2022-10-16T08:15:54;15.28;74.02
75357;HTU21D;63946;51.986;5.930;2022-10-16T08:37:29;15.59;73.51
75357;HTU21D;63946;51.986;5.930;2022-10-16T08:40:45;15.59;73.24
75357;HTU21D;63946;51.986;5.930;2022-10-16T08:43:43;15.56;73.12
75357;HTU21D;63946;51.986;5.930;2022-10-16T08:50:30;15.53;73.20
75357;HTU21D;63946;51.986;5.930;2022-10-16T08:59:55;15.66;72.96
75357;HTU21D;63946;51.986;5.930;2022-10-16T09:02:53;15.70;72.83
75357;HTU21D;63946;51.986;5.930;2022-10-16T09:06:21;15.72;72.45
75357;HTU21D;63946;51.986;5.930;2022-10-16T09:15:29;15.91;71.74
75357;HTU21D;63946;51.986;5.930;2022-10-16T09:18:24;15.92;71.93
75357;HTU21D;63946;51.986;5.930;2022-10-16T09:21:52;15.99;71.75
75357;HTU21D;63946;51.986;5.930;2022-10-16T09:24:26;16.02;71.55
75357;HTU21D;63946;51.986;5.930;2022-10-16T09:26:56;16.05;71.38
75357;HTU21D;63946;51.986;5.930;2022-10-16T09:29:32;16.11;71.37
75357;HTU21D;63946;51.986;5.930;2022-10-16T09:36:03;16.21;70.63
75357;HTU21D;63946;51.986;5.930;2022-10-16T09:39:17;16.33;70.23
75357;HTU21D;63946;51.986;5.930;2022-10-16T09:49:03;16.48;70.29
75357;HTU21D;63946;51.986;5.930;2022-10-16T09:52:05;16.56;70.13
75357;HTU21D;63946;51.986;5.930;2022-10-16T09:54:54;16.63;70.05
75357;HTU21D;63946;51.986;5.930;2022-10-16T09:58:24;16.74;69.79
75357;HTU21D;63946;51.986;5.930;2022-10-16T10:05:47;16.99;68.94
75357;HTU21D;63946;51.986;5.930;2022-10-16T10:08:37;17.06;68.73
75357;HTU21D;63946;51.986;5.930;2022-10-16T10:11:09;17.19;68.61
75357;HTU21D;63946;51.986;5.930;2022-10-16T10:13:52;17.32;68.30
75357;HTU21D;63946;51.986;5.930;2022-10-16T10:21:00;17.37;67.72
75357;HTU21D;63946;51.986;5.930;2022-10-16T10:24:19;17.54;67.49
75357;HTU21D;63946;51.986;5.930;2022-10-16T10:44:57;18.49;64.99
75357;HTU21D;63946;51.986;5.930;2022-10-16T10:48:46;18.68;64.31
75357;HTU21D;63946;51.986;5.930;2022-10-16T11:23:47;19.60;60.13
75357;HTU21D;63946;51.986;5.930;2022-10-16T11:31:04;19.48;59.31
75357;HTU21D;63946;51.986;5.930;2022-10-16T11:55:56;19.79;57.65
75357;HTU21D;63946;51.986;5.930;2022-10-16T11:58:54;19.98;57.08
75357;HTU21D;63946;51.986;5.930;2022-10-16T12:08:48;20.09;55.22
75357;HTU21D;63946;51.986;5.930;2022-10-16T12:11:51;19.81;56.08
75357;HTU21D;63946;51.986;5.930;2022-10-16T12:21:51;19.83;56.08
75357;HTU21D;63946;51.986;5.930;2022-10-16T12:43:11;20.17;55.07
75357;HTU21D;63946;51.986;5.930;2022-10-16T12:46:38;20.20;54.58
75357;HTU21D;63946;51.986;5.930;2022-10-16T12:53:28;20.25;54.47
75357;HTU21D;63946;51.986;5.930;2022-10-16T13:33:01;20.10;53.85
75357;HTU21D;63946;51.986;5.930;2022-10-16T13:49:38;20.29;53.70
75357;HTU21D;63946;51.986;5.930;2022-10-16T13:56:09;20.28;53.04
75357;HTU21D;63946;51.986;5.930;2022-10-16T14:44:11;19.25;54.58
75357;HTU21D;63946;51.986;5.930;2022-10-16T14:57:56;18.94;56.79
75357;HTU21D;63946;51.986;5.930;2022-10-16T15:08:35;18.72;56.65
75357;HTU21D;63946;51.986;5.930;2022-10-16T15:11:55;18.74;57.03
75357;HTU21D;63946;51.986;5.930;2022-10-16T16:20:13;17.51;60.99
75357;HTU21D;63946;51.986;5.930;2022-10-16T16:26:38;17.40;61.42
75357;HTU21D;63946;51.986;5.930;2022-10-16T16:29:41;17.34;61.05
75357;HTU21D;63946;51.986;5.930;2022-10-16T16:32:36;17.33;60.89
75357;HTU21D;63946;51.986;5.930;2022-10-16T16:35:38;17.30;60.89
75357;HTU21D;63946;51.986;5.930;2022-10-16T16:42:08;17.21;61.41
75357;HTU21D;63946;51.986;5.930;2022-10-16T16:45:24;17.17;61.89
75357;HTU21D;63946;51.986;5.930;2022-10-16T16:51:40;17.00;62.76
75357;HTU21D;63946;51.986;5.930;2022-10-16T16:54:32;16.95;63.24
75357;HTU21D;63946;51.986;5.930;2022-10-16T16:57:18;16.89;63.55
75357;HTU21D;63946;51.986;5.930;2022-10-16T17:00:00;16.79;63.89
75357;HTU21D;63946;51.986;5.930;2022-10-16T17:02:48;16.76;64.05
75357;HTU21D;63946;51.986;5.930;2022-10-16T17:05:54;16.77;64.06
75357;HTU21D;63946;51.986;5.930;2022-10-16T17:08:41;16.75;64.34
75357;HTU21D;63946;51.986;5.930;2022-10-16T17:11:32;16.71;64.56
75357;HTU21D;63946;51.986;5.930;2022-10-16T17:14:28;16.66;64.66
75357;HTU21D;63946;51.986;5.930;2022-10-16T17:17:17;16.61;64.95
75357;HTU21D;63946;51.986;5.930;2022-10-16T17:19:53;16.55;65.00
75357;HTU21D;63946;51.986;5.930;2022-10-16T17:23:03;16.47;65.34
75357;HTU21D;63946;51.986;5.930;2022-10-16T17:26:05;16.43;65.59
75357;HTU21D;63946;51.986;5.930;2022-10-16T17:28:54;16.40;65.71
75357;HTU21D;63946;51.986;5.930;2022-10-16T17:31:30;16.36;65.92
75357;HTU21D;63946;51.986;5.930;2022-10-16T17:34:01;16.34;65.94
75357;HTU21D;63946;51.986;5.930;2022-10-16T17:36:35;16.36;66.04
75357;HTU21D;63946;51.986;5.930;2022-10-16T17:39:17;16.37;66.17
75357;HTU21D;63946;51.986;5.930;2022-10-16T17:42:02;16.35;66.07
75357;HTU21D;63946;51.986;5.930;2022-10-16T17:44:40;16.36;65.91
75357;HTU21D;63946;51.986;5.930;2022-10-16T17:47:14;16.35;65.98
75357;HTU21D;63946;51.986;5.930;2022-10-16T17:49:43;16.34;66.01
75357;HTU21D;63946;51.986;5.930;2022-10-16T17:52:13;16.33;66.04
75357;HTU21D;63946;51.986;5.930;2022-10-16T17:54:52;16.33;66.01
75357;HTU21D;63946;51.986;5.930;2022-10-16T17:57:25;16.32;66.19
75357;HTU21D;63946;51.986;5.930;2022-10-16T18:00:00;16.29;66.31
75357;HTU21D;63946;51.986;5.930;2022-10-16T18:02:44;16.25;66.57
75357;HTU21D;63946;51.986;5.930;2022-10-16T18:05:24;16.22;66.72
75357;HTU21D;63946;51.986;5.930;2022-10-16T18:08:01;16.21;66.78
75357;HTU21D;63946;51.986;5.930;2022-10-16T18:10:47;16.20;66.82
75357;HTU21D;63946;51.986;5.930;2022-10-16T18:13:28;16.17;66.75
75357;HTU21D;63946;51.986;5.930;2022-10-16T18:16:07;16.14;66.81
75357;HTU21D;63946;51.986;5.930;2022-10-16T18:18:50;16.10;66.90
75357;HTU21D;63946;51.986;5.930;2022-10-16T18:21:27;16.08;66.91
75357;HTU21D;63946;51.986;5.930;2022-10-16T18:23:58;16.05;67.00
75357;HTU21D;63946;51.986;5.930;2022-10-16T18:26:30;16.04;66.96
75357;HTU21D;63946;51.986;5.930;2022-10-16T18:29:13;16.03;67.20
75357;HTU21D;63946;51.986;5.930;2022-10-16T18:31:57;16.03;67.10
75357;HTU21D;63946;51.986;5.930;2022-10-16T18:34:33;16.03;67.23
75357;HTU21D;63946;51.986;5.930;2022-10-16T18:37:16;15.99;67.33
75357;HTU21D;63946;51.986;5.930;2022-10-16T18:39:46;15.99;67.36
75357;HTU21D;63946;51.986;5.930;2022-10-16T18:42:18;16.01;67.36
75357;HTU21D;63946;51.986;5.930;2022-10-16T18:44:47;16.01;67.38
75357;HTU21D;63946;51.986;5.930;2022-10-16T18:47:20;16.01;67.32
75357;HTU21D;63946;51.986;5.930;2022-10-16T18:49:52;16.01;67.30
75357;HTU21D;63946;51.986;5.930;2022-10-16T18:52:25;16.01;67.32
75357;HTU21D;63946;51.986;5.930;2022-10-16T18:54:57;16.00;67.42
75357;HTU21D;63946;51.986;5.930;2022-10-16T18:57:29;16.01;67.46
75357;HTU21D;63946;51.986;5.930;2022-10-16T19:00:01;16.02;67.65
75357;HTU21D;63946;51.986;5.930;2022-10-16T19:02:39;16.02;67.65
75357;HTU21D;63946;51.986;5.930;2022-10-16T19:05:13;16.02;67.59
75357;HTU21D;63946;51.986;5.930;2022-10-16T19:07:50;16.03;67.45
75357;HTU21D;63946;51.986;5.930;2022-10-16T19:10:23;16.04;67.56
75357;HTU21D;63946;51.986;5.930;2022-10-16T19:12:57;16.04;67.49
75357;HTU21D;63946;51.986;5.930;2022-10-16T19:15:45;16.05;67.53
75357;HTU21D;63946;51.986;5.930;2022-10-16T19:18:34;16.08;67.69
75357;HTU21D;63946;51.986;5.930;2022-10-16T19:21:09;16.10;67.88
75357;HTU21D;63946;51.986;5.930;2022-10-16T19:23:44;16.10;67.90
75357;HTU21D;63946;51.986;5.930;2022-10-16T19:26:21;16.06;67.97
75357;HTU21D;63946;51.986;5.930;2022-10-16T19:28:51;16.03;68.13
75357;HTU21D;63946;51.986;5.930;2022-10-16T19:31:29;15.99;68.22
75357;HTU21D;63946;51.986;5.930;2022-10-16T19:34:03;15.96;68.31
75357;HTU21D;63946;51.986;5.930;2022-10-16T19:36:34;15.91;68.49
75357;HTU21D;63946;51.986;5.930;2022-10-16T19:39:21;15.89;68.71
75357;HTU21D;63946;51.986;5.930;2022-10-16T19:41:57;15.85;68.81
75357;HTU21D;63946;51.986;5.930;2022-10-16T19:44:36;15.85;68.94
75357;HTU21D;63946;51.986;5.930;2022-10-16T19:47:07;15.86;69.05
75357;HTU21D;63946;51.986;5.930;2022-10-16T19:49:36;15.87;69.45
75357;HTU21D;63946;51.986;5.930;2022-10-16T19:52:07;15.89;69.42
75357;HTU21D;63946;51.986;5.930;2022-10-16T19:54:36;15.85;69.50
75357;HTU21D;63946;51.986;5.930;2022-10-16T19:57:11;15.83;69.70
75357;HTU21D;63946;51.986;5.930;2022-10-16T19:59:45;15.80;69.63
75357;HTU21D;63946;51.986;5.930;2022-10-16T20:02:14;15.74;69.71
75357;HTU21D;63946;51.986;5.930;2022-10-16T20:04:46;15.74;69.91
75357;HTU21D;63946;51.986;5.930;2022-10-16T20:07:16;15.76;70.07
75357;HTU21D;63946;51.986;5.930;2022-10-16T20:09:45;15.78;70.19
75357;HTU21D;63946;51.986;5.930;2022-10-16T20:12:15;15.81;70.23
75357;HTU21D;63946;51.986;5.930;2022-10-16T20:14:47;15.82;70.26
75357;HTU21D;63946;51.986;5.930;2022-10-16T20:17:16;15.82;70.55
75357;HTU21D;63946;51.986;5.930;2022-10-16T20:19:50;15.82;70.52
75357;HTU21D;63946;51.986;5.930;2022-10-16T20:22:22;15.81;70.56
75357;HTU21D;63946;51.986;5.930;2022-10-16T20:24:53;15.76;70.78
75357;HTU21D;63946;51.986;5.930;2022-10-16T20:27:22;15.75;70.78
75357;HTU21D;63946;51.986;5.930;2022-10-16T20:29:56;15.73;70.89
75357;HTU21D;63946;51.986;5.930;2022-10-16T20:32:31;15.72;71.01
75357;HTU21D;63946;51.986;5.930;2022-10-16T20:35:03;15.74;71.08
75357;HTU21D;63946;51.986;5.930;2022-10-16T20:37:48;15.73;71.13
75357;HTU21D;63946;51.986;5.930;2022-10-16T20:40:20;15.71;71.28
75357;HTU21D;63946;51.986;5.930;2022-10-16T20:42:49;15.72;71.28
75357;HTU21D;63946;51.986;5.930;2022-10-16T20:45:21;15.72;71.42
75357;HTU21D;63946;51.986;5.930;2022-10-16T20:47:55;15.71;71.50
75357;HTU21D;63946;51.986;5.930;2022-10-16T20:50:43;15.71;71.54
75357;HTU21D;63946;51.986;5.930;2022-10-16T20:53:21;15.71;71.76
75357;HTU21D;63946;51.986;5.930;2022-10-16T20:55:52;15.66;71.74
75357;HTU21D;63946;51.986;5.930;2022-10-16T20:58:24;15.65;71.80
75357;HTU21D;63946;51.986;5.930;2022-10-16T21:01:07;15.65;71.84
75357;HTU21D;63946;51.986;5.930;2022-10-16T21:03:41;15.63;71.80
75357;HTU21D;63946;51.986;5.930;2022-10-16T21:06:14;15.62;71.84
75357;HTU21D;63946;51.986;5.930;2022-10-16T21:08:48;15.66;71.83
75357;HTU21D;63946;51.986;5.930;2022-10-16T21:11:19;15.66;71.85
75357;HTU21D;63946;51.986;5.930;2022-10-16T21:13:51;15.67;71.77
75357;HTU21D;63946;51.986;5.930;2022-10-16T21:16:24;15.69;71.64
75357;HTU21D;63946;51.986;5.930;2022-10-16T21:18:56;15.69;71.69
75357;HTU21D;63946;51.986;5.930;2022-10-16T21:21:28;15.69;71.75
75357;HTU21D;63946;51.986;5.930;2022-10-16T21:23:59;15.67;71.90
75357;HTU21D;63946;51.986;5.930;2022-10-16T21:26:30;15.68;71.96
75357;HTU21D;63946;51.986;5.930;2022-10-16T21:29:05;15.67;71.94
75357;HTU21D;63946;51.986;5.930;2022-10-16T21:31:35;15.67;71.95
75357;HTU21D;63946;51.986;5.930;2022-10-16T21:34:11;15.67;72.00
75357;HTU21D;63946;51.986;5.930;2022-10-16T21:36:42;15.66;71.97
75357;HTU21D;63946;51.986;5.930;2022-10-16T21:39:14;15.67;71.99
75357;HTU21D;63946;51.986;5.930;2022-10-16T21:41:46;15.67;72.00
75357;HTU21D;63946;51.986;5.930;2022-10-16T21:44:18;15.67;71.95
75357;HTU21D;63946;51.986;5.930;2022-10-16T21:46:50;15.67;71.97
75357;HTU21D;63946;51.986;5.930;2022-10-16T21:49:22;15.66;71.96
75357;HTU21D;63946;51.986;5.930;2022-10-16T21:51:51;15.61;72.10
75357;HTU21D;63946;51.986;5.930;2022-10-16T21:54:22;15.60;72.25
75357;HTU21D;63946;51.986;5.930;2022-10-16T21:56:51;15.61;72.09
75357;HTU21D;63946;51.986;5.930;2022-10-16T21:59:25;15.61;72.03
75357;HTU21D;63946;51.986;5.930;2022-10-16T22:01:54;15.61;72.16
75357;HTU21D;63946;51.986;5.930;2022-10-16T22:04:23;15.58;72.27
75357;HTU21D;63946;51.986;5.930;2022-10-16T22:06:51;15.56;72.36
75357;HTU21D;63946;51.986;5.930;2022-10-16T22:09:20;15.55;72.42
75357;HTU21D;63946;51.986;5.930;2022-10-16T22:11:49;15.54;72.45
75357;HTU21D;63946;51.986;5.930;2022-10-16T22:14:21;15.55;72.58
75357;HTU21D;63946;51.986;5.930;2022-10-16T22:16:50;15.55;72.45
75357;HTU21D;63946;51.986;5.930;2022-10-16T22:19:21;15.53;72.55
